createdAt,value
2023-04-14T00:02:55.476Z,100.0
2023-04-14T00:08:27.019Z,100.0
2023-04-14T00:13:58.676Z,100.0
2023-04-14T00:19:30.443Z,100.0
2023-04-14T00:25:08.628Z,100.0
2023-04-14T00:30:40.384Z,100.0
2023-04-14T00:36:12.018Z,100.0
2023-04-14T00:41:43.749Z,100.0
2023-04-14T00:47:15.471Z,100.0
2023-04-14T00:52:47.225Z,100.0
2023-04-14T00:58:18.942Z,100.0
2023-04-14T01:03:51.006Z,99.65
2023-04-14T01:09:22.360Z,98.42
2023-04-14T01:14:53.986Z,97.12
2023-04-14T01:20:26.422Z,96.82
2023-04-14T01:26:03.934Z,96.63
2023-04-14T01:31:35.616Z,97.34
2023-04-14T01:37:07.293Z,95.71
2023-04-14T01:42:38.976Z,95.5
2023-04-14T01:48:10.833Z,96.03
2023-04-14T01:53:42.405Z,99.77
2023-04-14T01:59:14.187Z,98.42
2023-04-14T02:04:45.921Z,98.31
2023-04-14T02:10:17.591Z,97.8
2023-04-14T02:15:49.375Z,98.54
2023-04-14T02:21:21.058Z,100.0
2023-04-14T02:26:57.182Z,100.0
2023-04-14T02:32:29.064Z,100.0
2023-04-14T02:38:01.191Z,99.86
2023-04-14T02:43:32.398Z,99.1
2023-04-14T02:49:04.069Z,99.09
2023-04-14T02:54:35.909Z,99.56
2023-04-14T03:00:07.492Z,99.83
2023-04-14T03:05:39.329Z,99.85
2023-04-14T03:11:11.036Z,98.61
2023-04-14T03:16:42.729Z,97.73
2023-04-14T03:22:14.471Z,98.51
2023-04-14T03:27:50.642Z,98.18
2023-04-14T03:33:22.321Z,97.14
2023-04-14T03:38:54.035Z,97.21
2023-04-14T03:44:25.751Z,97.9
2023-04-14T03:49:57.531Z,98.45
2023-04-14T03:55:29.234Z,99.22
2023-04-14T04:01:00.802Z,99.36
2023-04-14T04:06:32.652Z,99.16
2023-04-14T04:12:04.458Z,99.47
2023-04-14T04:17:36.126Z,99.42
2023-04-14T04:23:07.822Z,99.58
2023-04-14T04:28:46.083Z,99.49
2023-04-14T04:34:17.835Z,98.71
2023-04-14T04:39:49.949Z,98.93
2023-04-14T04:45:21.109Z,98.79
2023-04-14T04:50:52.863Z,98.89
2023-04-14T04:56:24.612Z,99.32
2023-04-14T05:01:57.230Z,98.68
2023-04-14T05:07:28.047Z,99.08
2023-04-14T05:12:59.740Z,98.8
2023-04-14T05:18:32.124Z,99.71
2023-04-14T05:24:03.185Z,99.97
2023-04-14T05:29:39.334Z,100.0
2023-04-14T05:35:11.018Z,100.0
2023-04-14T05:40:43.316Z,99.5
2023-04-14T05:46:14.612Z,100.0
2023-04-14T05:51:46.296Z,100.0
2023-04-14T05:57:18.040Z,100.0
2023-04-14T06:02:50.300Z,99.98
2023-04-14T06:08:21.427Z,99.6
2023-04-14T06:13:53.153Z,98.11
2023-04-14T06:19:24.804Z,97.78
2023-04-14T06:24:56.493Z,97.25
2023-04-14T06:30:34.730Z,95.52
2023-04-14T06:36:06.413Z,93.85
2023-04-14T06:41:38.155Z,92.99
2023-04-14T06:47:09.877Z,94.45
2023-04-14T06:52:41.480Z,93.39
2023-04-14T06:58:13.428Z,92.41
2023-04-14T07:03:45.142Z,94.39
2023-04-14T07:09:16.956Z,90.44
2023-04-14T07:14:48.408Z,91.2
2023-04-14T07:20:20.184Z,90.83
2023-04-14T07:25:51.843Z,91.2
2023-04-14T07:31:28.127Z,87.91
2023-04-14T07:36:59.692Z,86.51
2023-04-14T07:42:31.464Z,88.72
2023-04-14T07:48:03.365Z,86.72
2023-04-14T07:53:35.602Z,86.54
2023-04-14T07:59:06.692Z,86.81
2023-04-14T08:04:38.420Z,85.46
2023-04-14T08:10:10.079Z,85.99
2023-04-14T08:15:41.922Z,85.83
2023-04-14T08:21:13.745Z,82.28
2023-04-14T08:26:45.318Z,84.87
2023-04-14T08:32:22.484Z,82.75
2023-04-14T08:37:53.189Z,83.66
2023-04-14T08:43:24.874Z,79.38
2023-04-14T08:48:56.562Z,77.4
2023-04-14T08:54:28.210Z,80.84
2023-04-14T08:59:59.976Z,83.21
2023-04-14T09:05:31.685Z,80.72
2023-04-14T09:11:03.495Z,77.1
2023-04-14T09:16:35.155Z,77.64
2023-04-14T09:22:06.856Z,78.45
2023-04-14T09:27:38.493Z,76.93
2023-04-14T09:33:14.793Z,80.68
2023-04-14T09:38:46.411Z,77.35
2023-04-14T09:44:18.244Z,78.11
2023-04-14T09:49:49.849Z,77.6
2023-04-14T09:55:21.612Z,76.44
2023-04-14T10:00:53.315Z,78.46
2023-04-14T10:06:25.056Z,76.15
2023-04-14T10:11:57.123Z,76.67
2023-04-14T10:17:32.019Z,75.6
2023-04-14T10:23:00.312Z,75.13
2023-04-14T10:28:34.515Z,75.97
2023-04-14T10:34:08.268Z,70.11
2023-04-14T10:39:39.873Z,72.73
2023-04-14T10:45:11.630Z,68.56
2023-04-14T10:50:43.313Z,70.55
2023-04-14T10:56:15.081Z,69.69
2023-04-14T11:01:46.924Z,70.79
2023-04-14T11:07:18.497Z,72.2
2023-04-14T11:12:50.145Z,67.79
2023-04-14T11:18:22.092Z,68.28
2023-04-14T11:23:53.596Z,67.53
2023-04-14T11:29:25.269Z,65.35
2023-04-14T11:35:01.540Z,67.44
2023-04-14T11:40:33.259Z,67.43
2023-04-14T11:46:05.104Z,65.86
2023-04-14T11:51:36.729Z,63.26
2023-04-14T11:57:08.719Z,64.03
2023-04-14T12:02:40.387Z,66.62
2023-04-14T12:08:12.667Z,60.97
2023-04-14T12:13:43.551Z,58.2
2023-04-14T12:19:15.349Z,61.92
2023-04-14T12:24:47.024Z,62.07
2023-04-14T12:30:18.826Z,60.93
2023-04-14T12:35:54.907Z,59.37
2023-04-14T12:41:26.650Z,59.82
2023-04-14T12:46:58.432Z,60.24
2023-04-14T12:52:30.135Z,59.52
2023-04-14T12:58:02.725Z,58.27
2023-04-14T13:03:33.826Z,56.39
2023-04-14T13:09:05.441Z,56.67
2023-04-14T13:14:39.960Z,55.47
2023-04-14T13:20:08.694Z,56.2
2023-04-14T13:25:40.451Z,55.17
2023-04-14T13:31:12.113Z,53.58
2023-04-14T13:36:48.239Z,52.32
2023-04-14T13:42:20.153Z,54.64
2023-04-14T13:47:52.058Z,54.43
2023-04-14T13:53:23.592Z,54.93
2023-04-14T13:58:55.273Z,55.02
2023-04-14T14:04:27.216Z,54.84
2023-04-14T14:09:58.565Z,53.47
2023-04-14T14:15:30.496Z,52.09
2023-04-14T14:21:02.756Z,55.5
2023-04-14T14:26:33.819Z,55.37
2023-04-14T14:32:05.545Z,56.27
2023-04-14T14:37:41.604Z,53.25
2023-04-14T14:43:13.376Z,55.47
2023-04-14T14:48:45.114Z,53.31
2023-04-14T14:54:17.030Z,52.72
2023-04-14T14:59:48.573Z,55.12
2023-04-14T15:05:20.247Z,54.42
2023-04-14T15:10:51.958Z,53.89
2023-04-14T15:16:23.821Z,51.07
2023-04-14T15:21:55.488Z,52.16
2023-04-14T15:27:27.207Z,48.41
2023-04-14T15:32:59.286Z,51.29
2023-04-14T15:38:35.187Z,51.59
2023-04-14T15:44:06.840Z,48.2
2023-04-14T15:49:38.596Z,50.42
2023-04-14T15:55:10.403Z,53.27
2023-04-14T16:00:42.029Z,54.79
2023-04-14T16:06:13.889Z,51.68
2023-04-14T16:11:45.499Z,52.13
2023-04-14T16:17:17.349Z,52.64
2023-04-14T16:22:48.840Z,50.1
2023-04-14T16:28:20.835Z,50.97
2023-04-14T16:33:52.293Z,53.34
2023-04-14T16:39:31.124Z,56.5
2023-04-14T16:45:00.225Z,56.54
2023-04-14T16:50:31.992Z,56.57
2023-04-14T16:56:03.718Z,58.5
2023-04-14T17:01:35.710Z,63.64
2023-04-14T17:07:07.033Z,65.17
2023-04-14T17:12:38.851Z,66.1
2023-04-14T17:18:11.378Z,66.54
2023-04-14T17:23:42.263Z,69.0
2023-04-14T17:29:13.885Z,69.43
2023-04-14T17:34:45.754Z,70.03
2023-04-14T17:40:23.893Z,69.98
2023-04-14T17:45:55.959Z,69.76
2023-04-14T17:51:27.322Z,70.5
2023-04-14T17:56:59.058Z,70.74
2023-04-14T18:02:31.633Z,70.59
2023-04-14T18:08:02.490Z,70.38
2023-04-14T18:13:34.214Z,71.04
2023-04-14T18:19:05.938Z,71.27
2023-04-14T18:30:09.388Z,71.33
2023-04-14T18:35:41.114Z,71.83
2023-04-14T18:41:17.250Z,71.79
2023-04-14T18:46:49.286Z,71.41
2023-04-14T18:52:20.675Z,71.09
2023-04-14T18:57:52.402Z,71.77
2023-04-14T19:03:24.245Z,72.46
2023-04-14T19:08:55.754Z,74.7
2023-04-14T19:14:27.536Z,75.56
2023-04-14T19:19:59.215Z,75.64
2023-04-14T19:25:31.050Z,76.71
2023-04-14T19:31:02.751Z,76.85
2023-04-14T19:36:34.434Z,77.46
2023-04-14T19:42:12.579Z,77.98
2023-04-14T19:47:44.919Z,78.13
2023-04-14T19:53:16.031Z,78.82
2023-04-14T19:58:47.727Z,79.44
2023-04-14T20:04:19.784Z,79.46
2023-04-14T20:09:51.587Z,79.46
2023-04-14T20:15:23.054Z,79.96
2023-04-14T20:20:54.692Z,79.91
2023-04-14T20:26:26.448Z,80.3
2023-04-14T20:31:58.318Z,80.12
2023-04-14T20:37:29.873Z,80.07
2023-04-14T20:43:06.077Z,80.02
2023-04-14T20:48:37.803Z,80.74
2023-04-14T20:54:10.000Z,80.55
2023-04-14T20:59:41.181Z,80.98
2023-04-14T21:05:12.904Z,81.48
2023-04-14T21:11:18.126Z,81.42
2023-04-14T21:16:16.544Z,82.1
2023-04-14T21:21:47.968Z,82.61
2023-04-14T21:27:19.809Z,82.32
2023-04-14T21:32:51.670Z,82.49
2023-04-14T21:38:23.606Z,82.73
2023-04-14T21:44:01.374Z,82.98
2023-04-14T21:49:33.077Z,83.32
2023-04-14T21:55:04.808Z,83.57
2023-04-14T22:00:36.520Z,83.75
2023-04-14T22:06:08.274Z,83.52
2023-04-14T22:11:40.864Z,83.22
2023-04-14T22:17:11.686Z,83.17
2023-04-14T22:22:43.450Z,83.79
2023-04-14T22:28:15.577Z,83.53
2023-04-14T22:33:46.872Z,83.92
2023-04-14T22:39:18.597Z,84.28
2023-04-14T22:44:54.862Z,84.49
2023-04-14T22:50:26.964Z,84.58
2023-04-14T22:55:58.268Z,84.75
2023-04-14T23:01:29.925Z,85.05
2023-04-14T23:07:01.714Z,85.13
2023-04-14T23:12:33.655Z,85.08
2023-04-14T23:18:05.096Z,84.38
2023-04-14T23:23:36.845Z,84.73
2023-04-14T23:29:08.798Z,84.71
2023-04-14T23:34:40.155Z,84.53
2023-04-14T23:40:12.212Z,84.6
2023-04-14T23:45:48.048Z,84.86
2023-04-14T23:51:22.987Z,85.27
2023-04-14T23:56:51.439Z,85.24
